createdAt,value
2022-10-17T00:01:59.890Z,95.19
2022-10-17T00:05:01.434Z,95.87
2022-10-17T00:08:03.297Z,97.11
2022-10-17T00:11:08.869Z,96.58
2022-10-17T00:14:11.149Z,99.17
2022-10-17T00:17:12.814Z,100.00
2022-10-17T00:20:15.874Z,100.00
2022-10-17T00:23:18.266Z,100.00
2022-10-17T00:26:20.974Z,100.00
2022-10-17T00:29:22.544Z,100.00
2022-10-17T00:32:24.570Z,100.00
2022-10-17T00:35:26.242Z,99.70
2022-10-17T00:38:28.208Z,98.91
2022-10-17T00:41:32.686Z,99.56
2022-10-17T00:44:34.217Z,100.00
2022-10-17T00:47:37.235Z,98.06
2022-10-17T00:51:00.476Z,96.12
2022-10-17T00:54:03.290Z,96.66
2022-10-17T00:57:05.560Z,95.83
2022-10-17T01:00:09.165Z,96.53
2022-10-17T01:03:10.813Z,98.48
2022-10-17T01:06:12.628Z,99.19
2022-10-17T01:09:14.358Z,97.88
2022-10-17T01:12:22.089Z,96.24
2022-10-17T01:15:42.049Z,95.21
2022-10-17T01:19:19.032Z,97.01
2022-10-17T01:22:28.057Z,96.92
2022-10-17T01:25:43.107Z,94.82
2022-10-17T01:28:54.067Z,94.24
2022-10-17T01:32:02.119Z,93.99
2022-10-17T01:35:22.076Z,95.50
2022-10-17T01:38:31.269Z,94.37
2022-10-17T01:42:19.018Z,93.88
2022-10-17T01:45:41.582Z,94.95
2022-10-17T01:48:46.406Z,93.25
2022-10-17T01:51:54.322Z,95.45
2022-10-17T01:55:03.342Z,95.71
2022-10-17T01:58:10.436Z,94.88
2022-10-17T02:01:13.151Z,94.48
2022-10-17T02:04:16.699Z,93.47
2022-10-17T02:07:18.366Z,95.45
2022-10-17T02:10:30.708Z,96.08
2022-10-17T02:14:01.152Z,94.33
2022-10-17T02:17:28.053Z,95.38
2022-10-17T02:20:47.450Z,95.13
2022-10-17T02:24:04.031Z,95.09
2022-10-17T02:27:14.043Z,93.66
2022-10-17T02:30:31.566Z,94.53
2022-10-17T02:34:05.080Z,93.34
2022-10-17T02:37:10.804Z,93.93
2022-10-17T02:40:15.316Z,93.39
2022-10-17T02:43:17.008Z,92.59
2022-10-17T02:46:22.251Z,93.04
2022-10-17T02:49:29.618Z,92.89
2022-10-17T02:52:49.044Z,93.44
2022-10-17T02:55:57.396Z,93.66
2022-10-17T02:59:00.579Z,93.03
2022-10-17T03:02:06.890Z,93.14
2022-10-17T03:05:09.579Z,93.00
2022-10-17T03:08:11.853Z,92.98
2022-10-17T03:11:13.403Z,93.84
2022-10-17T03:14:15.003Z,96.70
2022-10-17T03:17:16.921Z,95.93
2022-10-17T03:20:18.571Z,97.20
2022-10-17T03:23:20.160Z,96.99
2022-10-17T03:26:22.167Z,97.53
2022-10-17T03:29:23.793Z,98.45
2022-10-17T03:32:25.785Z,98.78
2022-10-17T03:35:27.644Z,99.29
2022-10-17T03:38:29.225Z,100.00
2022-10-17T03:41:31.251Z,100.00
2022-10-17T03:44:32.847Z,100.00
2022-10-17T03:47:34.840Z,99.94
2022-10-17T03:50:36.532Z,99.06
2022-10-17T03:53:38.339Z,97.90
2022-10-17T03:56:40.031Z,96.63
2022-10-17T03:59:41.587Z,97.57
2022-10-17T04:02:44.961Z,99.82
2022-10-17T04:05:46.536Z,100.00
2022-10-17T04:08:48.789Z,100.00
2022-10-17T04:11:50.521Z,100.00
2022-10-17T04:14:52.356Z,100.00
2022-10-17T04:17:54.144Z,100.00
2022-10-17T04:20:56.167Z,99.26
2022-10-17T04:24:00.660Z,98.51
2022-10-17T04:27:02.350Z,100.00
2022-10-17T04:30:04.667Z,99.34
2022-10-17T04:33:06.694Z,99.48
2022-10-17T04:36:13.335Z,97.37
2022-10-17T04:39:14.987Z,100.00
2022-10-17T04:42:17.016Z,98.87
2022-10-17T04:45:18.591Z,98.12
2022-10-17T04:48:20.702Z,98.31
2022-10-17T04:51:24.595Z,97.93
2022-10-17T04:54:28.550Z,98.81
2022-10-17T04:57:30.144Z,99.66
2022-10-17T05:00:32.059Z,98.08
2022-10-17T05:03:35.248Z,96.64
2022-10-17T05:06:37.939Z,96.56
2022-10-17T05:09:39.507Z,96.66
2022-10-17T05:12:41.679Z,96.55
2022-10-17T05:15:43.276Z,97.22
2022-10-17T05:18:47.427Z,97.63
2022-10-17T05:21:51.003Z,97.68
2022-10-17T05:24:52.558Z,98.82
2022-10-17T05:27:54.781Z,98.03
2022-10-17T05:30:56.763Z,99.22
2022-10-17T05:34:07.088Z,97.92
2022-10-17T05:37:10.947Z,96.42
2022-10-17T05:40:12.649Z,94.96
2022-10-17T05:43:14.884Z,93.53
2022-10-17T05:46:17.279Z,93.76
2022-10-17T05:49:32.177Z,92.51
2022-10-17T05:52:42.883Z,91.65
2022-10-17T05:55:46.829Z,90.38
2022-10-17T05:58:50.628Z,88.17
2022-10-17T06:01:54.892Z,87.94
2022-10-17T06:04:56.536Z,87.42
2022-10-17T06:08:01.131Z,86.19
2022-10-17T06:11:07.586Z,84.11
2022-10-17T06:14:11.667Z,82.86
2022-10-17T06:17:15.981Z,82.05
2022-10-17T06:20:18.166Z,81.70
2022-10-17T06:23:20.325Z,79.41
2022-10-17T06:26:22.498Z,78.99
2022-10-17T06:29:24.243Z,81.35
2022-10-17T06:32:25.820Z,82.51
2022-10-17T06:35:27.779Z,84.27
2022-10-17T06:38:29.777Z,85.62
2022-10-17T06:41:31.446Z,87.77
2022-10-17T06:44:33.067Z,90.34
2022-10-17T06:47:35.920Z,91.35
2022-10-17T06:50:37.554Z,92.85
2022-10-17T06:53:40.514Z,93.62
2022-10-17T06:56:42.106Z,91.78
2022-10-17T06:59:44.079Z,91.57
2022-10-17T07:02:45.780Z,89.18
2022-10-17T07:05:55.631Z,89.27
2022-10-17T07:08:57.562Z,87.60
2022-10-17T07:12:00.141Z,88.28
2022-10-17T07:15:04.193Z,88.10
2022-10-17T07:18:06.589Z,86.63
2022-10-17T07:21:09.048Z,84.85
2022-10-17T07:24:10.627Z,73.47
2022-10-17T07:27:13.752Z,62.36
2022-10-17T07:30:16.167Z,54.23
2022-10-17T07:33:17.780Z,48.50
2022-10-17T07:36:19.763Z,44.51
2022-10-17T07:39:21.326Z,42.16
2022-10-17T07:42:23.367Z,40.12
2022-10-17T07:45:27.682Z,37.60
2022-10-17T07:48:30.243Z,34.91
2022-10-17T07:51:31.947Z,32.57
2022-10-17T07:54:34.030Z,32.64
2022-10-17T07:57:35.590Z,30.24
2022-10-17T08:00:37.896Z,30.92
2022-10-17T08:03:39.573Z,33.13
2022-10-17T08:06:41.422Z,38.08
2022-10-17T08:09:44.327Z,40.90
2022-10-17T08:12:46.341Z,43.55
2022-10-17T08:15:48.130Z,45.72
2022-10-17T08:18:50.111Z,49.01
2022-10-17T08:21:52.755Z,51.04
2022-10-17T08:24:54.513Z,50.91
2022-10-17T08:27:56.167Z,49.08
2022-10-17T08:31:09.772Z,41.07
2022-10-17T08:34:11.352Z,33.19
2022-10-17T08:37:15.970Z,28.51
2022-10-17T08:40:27.972Z,26.31
2022-10-17T08:43:52.709Z,25.68
2022-10-17T08:46:59.153Z,24.41
2022-10-17T08:50:04.184Z,22.51
2022-10-17T08:53:41.571Z,22.62
2022-10-17T08:56:50.079Z,21.27
2022-10-17T08:59:54.314Z,20.25
2022-10-17T09:03:47.306Z,20.87
2022-10-17T09:07:14.084Z,19.11
2022-10-17T09:10:28.885Z,18.78
2022-10-17T09:13:44.014Z,19.51
2022-10-17T09:17:04.313Z,20.96
2022-10-17T09:20:20.603Z,19.11
2022-10-17T09:23:23.898Z,19.03
2022-10-17T09:26:26.302Z,18.22
2022-10-17T09:29:36.015Z,18.05
2022-10-17T09:32:41.088Z,19.92
2022-10-17T09:35:43.888Z,18.63
2022-10-17T09:38:53.136Z,20.12
2022-10-17T09:41:57.830Z,22.71
2022-10-17T09:45:25.004Z,25.00
2022-10-17T09:48:37.230Z,26.17
2022-10-17T09:51:39.480Z,28.22
2022-10-17T09:54:46.983Z,31.21
2022-10-17T09:58:03.607Z,33.83
2022-10-17T10:01:21.056Z,34.71
2022-10-17T10:04:30.225Z,37.41
2022-10-17T10:07:38.190Z,37.58
2022-10-17T10:10:43.432Z,38.61
2022-10-17T10:13:49.424Z,38.85
2022-10-17T10:16:53.854Z,40.07
2022-10-17T10:19:56.214Z,38.95
2022-10-17T10:23:18.541Z,39.49
2022-10-17T10:26:32.251Z,42.05
2022-10-17T10:29:34.389Z,41.70
2022-10-17T10:32:37.557Z,41.31
2022-10-17T10:35:39.615Z,43.33
2022-10-17T10:38:42.563Z,42.68
2022-10-17T10:41:50.813Z,41.16
2022-10-17T10:44:56.252Z,43.17
2022-10-17T10:48:00.911Z,41.67
2022-10-17T10:51:09.369Z,43.17
2022-10-17T10:54:30.011Z,42.27
2022-10-17T10:57:35.038Z,42.60
2022-10-17T11:00:39.182Z,42.15
2022-10-17T11:03:53.199Z,39.69
2022-10-17T11:07:22.709Z,40.21
2022-10-17T11:10:59.904Z,39.36
2022-10-17T11:14:23.740Z,38.76
2022-10-17T11:17:55.297Z,38.28
2022-10-17T11:21:20.689Z,38.98
2022-10-17T11:24:31.299Z,37.60
2022-10-17T11:27:34.399Z,38.04
2022-10-17T11:31:03.407Z,39.52
2022-10-17T11:34:19.666Z,38.04
2022-10-17T11:37:26.404Z,36.60
2022-10-17T11:40:33.864Z,37.75
2022-10-17T11:43:52.445Z,37.50
2022-10-17T11:47:05.922Z,38.10
2022-10-17T11:54:09.040Z,39.21
2022-10-17T11:57:37.666Z,38.28
2022-10-17T12:00:51.395Z,39.52
2022-10-17T12:04:14.426Z,38.79
2022-10-17T12:07:36.732Z,38.37
2022-10-17T12:10:53.819Z,37.85
2022-10-17T12:13:56.904Z,37.60
2022-10-17T12:16:59.255Z,37.32
2022-10-17T12:20:26.339Z,38.58
2022-10-17T12:23:32.760Z,37.34
2022-10-17T12:26:34.510Z,37.65
2022-10-17T12:29:36.476Z,38.92
2022-10-17T12:33:05.551Z,37.35
2022-10-17T12:36:17.103Z,38.40
2022-10-17T12:39:18.578Z,38.61
2022-10-17T12:42:31.568Z,38.64
2022-10-17T12:46:02.874Z,37.66
2022-10-17T12:49:19.599Z,38.49
2022-10-17T12:52:27.635Z,38.12
2022-10-17T12:55:29.353Z,36.73
2022-10-17T12:58:31.389Z,36.82
2022-10-17T13:01:36.797Z,37.40
2022-10-17T13:04:38.645Z,37.13
2022-10-17T13:07:44.511Z,36.97
2022-10-17T13:10:51.804Z,38.84
2022-10-17T13:13:57.971Z,37.82
2022-10-17T13:17:06.201Z,38.26
2022-10-17T13:20:25.481Z,38.36
2022-10-17T13:23:36.344Z,38.61
2022-10-17T13:26:37.937Z,38.47
2022-10-17T13:29:44.518Z,38.61
2022-10-17T13:32:46.385Z,38.23
2022-10-17T13:36:00.137Z,37.94
2022-10-17T13:39:12.207Z,34.94
2022-10-17T13:42:24.662Z,30.92
2022-10-17T13:45:37.073Z,25.34
2022-10-17T13:48:38.785Z,23.96
2022-10-17T13:51:45.072Z,22.68
2022-10-17T13:54:51.244Z,20.68
2022-10-17T13:57:53.155Z,19.70
2022-10-17T14:00:55.039Z,19.53
2022-10-17T14:04:08.315Z,18.96
2022-10-17T14:07:26.424Z,19.51
2022-10-17T14:10:34.895Z,19.70
2022-10-17T14:13:36.520Z,20.12
2022-10-17T14:16:43.372Z,20.03
2022-10-17T14:19:51.480Z,20.55
2022-10-17T14:23:21.376Z,23.45
2022-10-17T14:26:24.223Z,27.90
2022-10-17T14:29:50.390Z,30.49
2022-10-17T14:32:56.938Z,32.99
2022-10-17T14:36:01.603Z,34.46
2022-10-17T14:39:05.434Z,35.82
2022-10-17T14:42:07.277Z,37.01
2022-10-17T14:45:14.659Z,37.90
2022-10-17T14:48:18.744Z,39.42
2022-10-17T14:51:20.714Z,40.04
2022-10-17T14:54:29.331Z,43.91
2022-10-17T14:57:33.938Z,45.63
2022-10-17T15:00:35.525Z,45.56
2022-10-17T15:03:37.354Z,46.65
2022-10-17T15:06:40.693Z,48.34
2022-10-17T15:09:43.896Z,50.20
2022-10-17T15:12:52.077Z,51.15
2022-10-17T15:16:01.546Z,52.58
2022-10-17T15:19:03.505Z,53.23
2022-10-17T15:22:05.137Z,53.12
2022-10-17T15:25:07.293Z,53.38
2022-10-17T15:28:13.190Z,55.17
2022-10-17T15:31:18.693Z,56.23
2022-10-17T15:34:20.468Z,56.03
2022-10-17T15:37:24.449Z,55.70
2022-10-17T15:40:29.412Z,56.01
2022-10-17T15:43:31.171Z,56.73
2022-10-17T15:46:34.845Z,57.36
2022-10-17T15:49:36.393Z,57.59
2022-10-17T15:52:38.483Z,57.53
2022-10-17T15:55:40.785Z,57.73
2022-10-17T15:58:42.413Z,58.78
2022-10-17T16:01:44.527Z,59.57
2022-10-17T16:04:47.597Z,60.59
2022-10-17T16:07:49.993Z,61.07
2022-10-17T16:10:52.366Z,61.57
2022-10-17T16:13:57.029Z,62.19
2022-10-17T16:16:59.852Z,64.18
2022-10-17T16:20:01.604Z,64.18
2022-10-17T16:23:04.177Z,63.95
2022-10-17T16:26:06.291Z,64.76
2022-10-17T16:29:09.398Z,65.26
2022-10-17T16:32:11.500Z,65.06
2022-10-17T16:35:19.511Z,65.87
2022-10-17T16:38:21.211Z,67.47
2022-10-17T16:41:35.347Z,70.17
2022-10-17T16:44:37.047Z,70.91
2022-10-17T16:47:38.658Z,70.73
2022-10-17T16:50:40.804Z,72.20
2022-10-17T16:53:45.793Z,70.72
2022-10-17T16:56:47.537Z,72.75
2022-10-17T16:59:49.142Z,72.80
2022-10-17T17:02:51.126Z,73.60
2022-10-17T17:05:52.716Z,73.54
2022-10-17T17:08:55.327Z,74.23
2022-10-17T17:11:58.299Z,74.50
2022-10-17T17:15:02.935Z,73.61
2022-10-17T17:18:08.662Z,73.19
2022-10-17T17:21:11.639Z,74.47
2022-10-17T17:24:13.961Z,75.34
2022-10-17T17:27:16.108Z,74.39
2022-10-17T17:30:18.351Z,74.68
2022-10-17T17:33:21.188Z,75.42
2022-10-17T17:36:30.131Z,75.42
2022-10-17T17:39:31.946Z,76.76
2022-10-17T17:42:34.551Z,75.73
2022-10-17T17:45:37.108Z,74.98
2022-10-17T17:48:41.186Z,76.23
2022-10-17T17:51:46.927Z,74.89
2022-10-17T17:54:50.356Z,76.55
2022-10-17T17:57:52.179Z,77.76
